Pierrepont Manor, New York
Current Conditions -  °F | °C
As of 8:56 PM on Saturday 20 Dec 2014 (Local Time) from KART Reporting Station
Clear Clear  
Wind Chill: -7°   Ceiling: Unl
Heat Index: -7°   Visibility: 10mi
Dew Point: -11°   Wind: 3mph
Humidity: 74%   Direction: 50°NE
Pressure: 30.3"   Gusts: NA
Location:  43.73°N, 76.06°W
Report Text: KART 210156Z AUTO 05003KT 10SM CLR M07/M11 A3030 RMK AO2 SLP271 I1000 T10721111
Loading
Personal Weather Stations






























Interactive Weather Map New forecast layout! Learn more

10-Day Weather Forecast

Advertisements
Track Severe Weather on mobile